Time;durP1;ratioP1;P1;durP2;ratioP2;P2;SDS_P1;SDS_P2;PMS_P1;PMS_P2;Temp;Humidity;BMP_temperature;BMP_pressure;BME280_temperature;BME280_humidity;BME280_pressure;Samples;Min_cycle;Max_cycle;Signal;HPM_P1;HPM_P2
2022/04/21 00:00:55;;;;;;;8.23;5.55;;;8.90;79.80;;;;;;5114446;28;20107;-45
2022/04/21 00:03:25;;;;;;;8.48;6.22;;;8.90;79.90;;;;;;5114731;28;20043;-46
2022/04/21 00:05:51;;;;;;;;;;;8.80;80.10;;;;;;5114063;28;20122;-47
2022/04/21 00:08:20;;;;;;;10.50;6.60;;;8.80;80.10;;;;;;5113356;28;19998;-45
2022/04/21 00:10:46;;;;;;;10.13;6.95;;;8.80;80.10;;;;;;5109301;28;20054;-49
2022/04/21 00:13:13;;;;;;;10.40;7.75;;;8.80;80.20;;;;;;5111757;28;20027;-47
2022/04/21 00:15:42;;;;;;;12.13;7.30;;;8.90;80.30;;;;;;5113144;28;20355;-51
2022/04/21 00:18:13;;;;;;;11.23;7.80;;;8.90;80.30;;;;;;5095251;28;20077;-45
2022/04/21 00:20:40;;;;;;;11.48;8.18;;;8.90;80.20;;;;;;5090230;28;20056;-45
2022/04/21 00:25:53;;;;;;;12.60;7.57;;;8.90;80.10;;;;;;5084546;28;20380;-47
2022/04/21 00:28:21;;;;;;;11.55;7.53;;;8.90;80.20;;;;;;5080002;28;20034;-47
2022/04/21 00:30:47;;;;;;;9.07;6.88;;;8.90;80.30;;;;;;5094643;28;20043;-47
2022/04/21 00:33:13;;;;;;;9.25;6.40;;;8.90;80.30;;;;;;5096926;28;20020;-45
2022/04/21 00:35:40;;;;;;;11.20;7.28;;;8.90;80.30;;;;;;5080369;28;20037;-45
2022/04/21 00:38:07;;;;;;;8.40;6.35;;;8.90;80.50;;;;;;5096981;28;20031;-45
2022/04/21 00:40:34;;;;;;;9.32;6.85;;;8.90;80.70;;;;;;5090060;28;20421;-46
2022/04/21 00:43:02;;;;;;;10.90;6.70;;;8.90;80.80;;;;;;5089515;28;20024;-45
2022/04/21 00:45:29;;;;;;;10.25;7.05;;;8.90;81.00;;;;;;5090773;28;20024;-44
2022/04/21 00:47:57;;;;;;;9.13;6.00;;;8.90;81.20;;;;;;5093937;28;20390;-45
2022/04/21 00:50:34;;;;;;;10.35;7.22;;;8.90;81.50;;;;;;5059544;28;20039;-45
2022/04/21 00:53:02;;;;;;;9.65;6.97;;;8.90;82.00;;;;;;5077216;28;20371;-44
2022/04/21 00:55:33;;;;;;;11.82;6.70;;;8.90;82.20;;;;;;5075872;28;20032;-47
2022/04/21 00:58:04;;;;;;;12.05;6.80;;;8.90;82.20;;;;;;5094030;28;20024;-45
2022/04/21 01:00:33;;;;;;;12.15;7.18;;;8.90;82.40;;;;;;5089879;28;20024;-44
2022/04/21 01:03:03;;;;;;;9.70;7.28;;;8.90;82.50;;;;;;5091760;28;20035;-45
2022/04/21 01:05:32;;;;;;;8.13;6.30;;;8.90;82.70;;;;;;5066640;28;20047;-45
2022/04/21 01:08:04;;;;;;;9.32;7.13;;;8.80;82.80;;;;;;5109324;28;20028;-47
2022/04/21 01:10:41;;;;;;;9.95;6.93;;;8.90;82.90;;;;;;5083512;28;20036;-46
2022/04/21 01:13:09;;;;;;;11.95;7.38;;;8.90;82.90;;;;;;5093650;28;20056;-45
2022/04/21 01:15:37;;;;;;;11.77;7.20;;;8.90;82.80;;;;;;5050792;28;20456;-47
2022/04/21 01:18:05;;;;;;;9.32;6.47;;;8.90;82.80;;;;;;5075053;28;20180;-47
2022/04/21 01:20:33;;;;;;;8.70;6.30;;;8.80;82.80;;;;;;5106570;28;20028;-47
2022/04/21 01:23:03;;;;;;;8.32;6.15;;;8.80;82.80;;;;;;5084547;28;20536;-44
2022/04/21 01:25:42;;;;;;;10.30;6.20;;;8.80;82.60;;;;;;5112077;28;20028;-49
2022/04/21 01:28:12;;;;;;;13.43;5.82;;;8.70;82.00;;;;;;5113128;28;20070;-45
2022/04/21 01:30:39;;;;;;;7.65;4.60;;;8.70;81.50;;;;;;5111679;28;20098;-47
2022/04/21 01:33:09;;;;;;;9.05;4.93;;;8.70;81.00;;;;;;5079053;28;20023;-45
2022/04/21 01:35:41;;;;;;;6.53;4.53;;;8.70;80.40;;;;;;5082201;28;20048;-44
2022/04/21 01:43:41;;;;;;;5.93;4.32;;;8.70;78.40;;;;;;5106450;28;20089;-44
2022/04/21 01:46:12;;;;;;;7.03;4.38;;;8.60;78.20;;;;;;5089841;28;20124;-45
2022/04/21 01:48:38;;;;;;;6.70;4.13;;;8.60;78.00;;;;;;5104445;28;20069;-45
2022/04/21 01:51:07;;;;;;;7.30;5.00;;;8.60;77.90;;;;;;5108191;28;20066;-45
2022/04/21 01:53:36;;;;;;;7.32;4.60;;;8.60;77.60;;;;;;5112499;28;20046;-45
2022/04/21 01:56:04;;;;;;;6.30;4.50;;;8.70;77.20;;;;;;5111666;28;20464;-44
2022/04/21 01:58:32;;;;;;;9.85;4.57;;;8.70;77.10;;;;;;5112006;28;20460;-45
2022/04/21 02:01:00;;;;;;;8.23;5.03;;;8.70;76.90;;;;;;5094492;28;20084;-45
2022/04/21 02:03:32;;;;;;;5.10;3.92;;;8.70;77.00;;;;;;5111360;28;20106;-49
2022/04/21 02:05:59;;;;;;;8.73;5.57;;;8.70;76.90;;;;;;5096183;28;20092;-45
2022/04/21 02:08:27;;;;;;;6.75;4.07;;;8.70;76.60;;;;;;5106925;28;20038;-44
2022/04/21 02:10:56;;;;;;;8.77;4.43;;;8.60;76.70;;;;;;5110635;28;20032;-49
2022/04/21 02:13:22;;;;;;;7.78;4.90;;;8.60;76.80;;;;;;5092864;28;20023;-44
2022/04/21 02:15:49;;;;;;;7.53;4.55;;;8.50;76.60;;;;;;5086701;28;20122;-45
2022/04/21 02:18:17;;;;;;;6.53;4.80;;;8.50;76.50;;;;;;5103369;28;20120;-45
2022/04/21 02:20:44;;;;;;;7.72;4.95;;;8.50;76.30;;;;;;5102002;28;20602;-47
2022/04/21 02:23:09;;;;;;;11.65;4.88;;;8.50;76.50;;;;;;5103755;28;20032;-46
2022/04/21 02:25:36;;;;;;;6.55;4.65;;;8.50;76.70;;;;;;5085469;28;20040;-46
2022/04/21 02:28:03;;;;;;;7.60;5.68;;;8.50;77.00;;;;;;5102572;28;20076;-46
2022/04/21 02:30:29;;;;;;;6.93;4.65;;;8.50;77.30;;;;;;5112391;28;20030;-45
2022/04/21 02:32:57;;;;;;;6.90;4.38;;;8.50;77.40;;;;;;5112034;28;20356;-45
2022/04/21 02:35:25;;;;;;;7.47;5.07;;;8.50;77.70;;;;;;5110112;28;20026;-47
2022/04/21 02:37:52;;;;;;;7.50;5.68;;;8.40;78.00;;;;;;5097928;28;20027;-44
2022/04/21 02:40:21;;;;;;;9.95;5.35;;;8.40;78.10;;;;;;5097595;28;20076;-44
2022/04/21 02:42:48;;;;;;;7.15;5.93;;;8.40;78.10;;;;;;5116983;28;20321;-48
2022/04/21 02:45:16;;;;;;;8.35;5.68;;;8.40;78.10;;;;;;5115841;28;20027;-46
2022/04/21 02:47:44;;;;;;;7.03;6.00;;;8.40;78.00;;;;;;5115765;28;20024;-45
2022/04/21 02:50:13;;;;;;;7.70;5.57;;;8.40;78.20;;;;;;5080835;28;20487;-46
2022/04/21 02:52:40;;;;;;;7.60;5.22;;;8.40;78.20;;;;;;5115815;28;20024;-45
2022/04/21 02:57:53;;;;;;;9.73;5.93;;;8.40;78.00;;;;;;5099839;28;20070;-45
2022/04/21 03:00:21;;;;;;;11.85;5.82;;;8.30;77.90;;;;;;5115910;28;20043;-46
2022/04/21 03:02:48;;;;;;;8.38;5.72;;;8.30;78.00;;;;;;5114032;28;20456;-45
2022/04/21 03:05:14;;;;;;;8.75;5.20;;;8.30;78.30;;;;;;5114938;28;20082;-50
2022/04/21 03:07:42;;;;;;;9.00;5.63;;;8.30;78.50;;;;;;5114841;28;20437;-47
2022/04/21 03:10:10;;;;;;;8.80;5.90;;;8.20;78.40;;;;;;5097587;28;20383;-52
2022/04/21 03:12:41;;;;;;;10.32;5.20;;;8.20;78.50;;;;;;5094102;28;20173;-47
2022/04/21 03:15:11;;;;;;;9.15;6.05;;;8.20;78.70;;;;;;5112415;28;20088;-46
2022/04/21 03:17:39;;;;;;;8.02;5.80;;;8.20;78.90;;;;;;5093476;28;20040;-45
2022/04/21 03:20:05;;;;;;;7.90;5.47;;;8.20;78.80;;;;;;5088944;28;20737;-45
2022/04/21 03:25:17;;;;;;;8.95;6.10;;;8.20;78.90;;;;;;5116292;28;20123;-45
2022/04/21 03:27:47;;;;;;;10.07;6.00;;;8.20;79.10;;;;;;5114259;28;20043;-46
2022/04/21 03:30:14;;;;;;;14.73;8.48;;;8.20;79.40;;;;;;5115348;28;20047;-44
2022/04/21 03:32:41;;;;;;;8.43;6.97;;;8.20;79.30;;;;;;5100289;28;20035;-46
2022/04/21 03:35:11;;;;;;;9.60;6.78;;;8.10;79.60;;;;;;5106292;28;20039;-48
2022/04/21 03:37:40;;;;;;;9.93;7.03;;;8.10;79.70;;;;;;5092168;28;20642;-47
2022/04/21 03:40:06;;;;;;;8.13;5.97;;;8.00;80.00;;;;;;5115071;28;20053;-50
2022/04/21 03:42:32;;;;;;;8.00;6.30;;;8.00;80.00;;;;;;5105521;28;20024;-48
2022/04/21 03:44:59;;;;;;;10.38;6.65;;;7.90;80.30;;;;;;5113626;28;20038;-48
2022/04/21 03:47:25;;;;;;;12.30;6.63;;;7.90;80.30;;;;;;5113443;28;20101;-46
2022/04/21 03:49:54;;;;;;;12.10;6.55;;;7.90;80.40;;;;;;5112367;28;20062;-47
2022/04/21 03:52:23;;;;;;;9.10;6.30;;;7.90;80.40;;;;;;5093652;28;20136;-47
2022/04/21 03:54:49;;;;;;;9.30;6.82;;;7.90;80.50;;;;;;5115936;28;20356;-47
2022/04/21 03:57:19;;;;;;;9.20;6.72;;;7.90;80.60;;;;;;5091304;28;20020;-45
2022/04/21 03:59:46;;;;;;;11.90;7.53;;;7.90;80.70;;;;;;5095767;28;20601;-44
2022/04/21 04:02:16;;;;;;;8.25;6.78;;;7.90;81.10;;;;;;5078445;28;20054;-47
2022/04/21 04:04:43;;;;;;;11.70;6.82;;;7.90;81.10;;;;;;5113473;27;20066;-46
2022/04/21 04:12:42;;;;;;;8.88;6.70;;;7.80;82.00;;;;;;5113111;28;20030;-44
2022/04/21 04:15:12;;;;;;;16.70;7.80;;;7.70;81.90;;;;;;5112296;27;20024;-45
2022/04/21 04:17:41;;;;;;;11.27;6.82;;;7.70;82.30;;;;;;5097133;28;20100;-50
2022/04/21 04:20:07;;;;;;;10.02;7.57;;;7.70;82.50;;;;;;5103974;28;20023;-44
2022/04/21 04:22:40;;;;;;;13.25;7.07;;;7.70;82.20;;;;;;5101810;28;20500;-45
2022/04/21 04:25:10;;;;;;;12.15;7.03;;;7.60;82.40;;;;;;5078997;28;20043;-47
2022/04/21 04:27:37;;;;;;;10.07;6.35;;;7.60;82.80;;;;;;5114352;28;20042;-45
2022/04/21 04:30:07;;;;;;;12.63;7.57;;;7.60;83.00;;;;;;5113983;28;20035;-47
2022/04/21 04:32:33;;;;;;;;;;;7.70;83.50;;;;;;5096676;28;20035;-48
2022/04/21 04:35:00;;;;;;;8.07;6.38;;;7.70;83.30;;;;;;5091919;28;19914;-43
2022/04/21 04:37:30;;;;;;;10.18;5.70;;;7.70;83.30;;;;;;5114735;28;20452;-45
2022/04/21 04:39:56;;;;;;;10.25;6.65;;;7.70;83.40;;;;;;5094127;28;20034;-46
2022/04/21 04:42:24;;;;;;;11.60;5.88;;;7.80;83.30;;;;;;5113317;28;20032;-45
2022/04/21 04:47:45;;;;;;;7.88;4.90;;;7.90;82.70;;;;;;5106362;28;20034;-47
2022/04/21 04:50:12;;;;;;;7.97;5.20;;;8.00;82.60;;;;;;5100329;28;20020;-46
2022/04/21 04:52:39;;;;;;;8.30;5.57;;;8.00;82.60;;;;;;5093917;28;20051;-49
2022/04/21 04:55:11;;;;;;;9.50;5.68;;;8.10;82.90;;;;;;5096813;28;20024;-47
2022/04/21 04:57:43;;;;;;;9.13;6.00;;;8.20;83.20;;;;;;5089148;28;20082;-45
2022/04/21 05:00:10;;;;;;;10.57;5.25;;;8.20;83.10;;;;;;5087573;28;20042;-46
2022/04/21 05:02:38;;;;;;;7.47;5.38;;;8.20;83.00;;;;;;5113240;28;20405;-49
2022/04/21 05:05:07;;;;;;;9.05;6.07;;;8.30;83.00;;;;;;5110558;28;20082;-46
2022/04/21 05:07:36;;;;;;;9.73;5.23;;;8.40;82.90;;;;;;5111317;28;20558;-45
2022/04/21 05:10:03;;;;;;;8.50;5.55;;;8.40;82.90;;;;;;5106744;28;20073;-46
2022/04/21 05:12:29;;;;;;;7.07;5.20;;;8.50;82.70;;;;;;5090933;28;20066;-46
2022/04/21 05:14:58;;;;;;;8.68;5.38;;;8.60;82.60;;;;;;5105638;28;20024;-48
2022/04/21 05:17:26;;;;;;;8.27;5.70;;;8.70;82.30;;;;;;5106101;28;20456;-45
2022/04/21 05:19:55;;;;;;;13.30;5.25;;;8.80;82.10;;;;;;5093932;28;20028;-45
2022/04/21 05:22:34;;;;;;;8.67;5.33;;;8.90;81.90;;;;;;5110761;28;20020;-44
2022/04/21 05:25:02;;;;;;;7.25;4.65;;;9.10;81.50;;;;;;5107312;28;20031;-49
2022/04/21 05:27:31;;;;;;;6.65;5.05;;;9.20;81.30;;;;;;5066796;28;20119;-45
2022/04/21 05:33:00;;;;;;;9.47;4.60;;;9.40;80.90;;;;;;5067351;28;20051;-47
2022/04/21 05:35:26;;;;;;;10.43;5.32;;;9.40;80.50;;;;;;5092801;27;20062;-46
2022/04/21 05:37:51;;;;;;;6.72;4.43;;;9.60;80.20;;;;;;5106756;28;20059;-48
2022/04/21 05:40:18;;;;;;;6.60;3.88;;;9.60;79.60;;;;;;5081839;28;20517;-47
2022/04/21 05:42:51;;;;;;;8.60;3.60;;;9.70;79.40;;;;;;5104002;28;20047;-46
2022/04/21 05:45:18;;;;;;;6.88;4.00;;;9.80;79.60;;;;;;5107987;28;20031;-47
2022/04/21 05:47:46;;;;;;;5.45;3.88;;;9.80;79.20;;;;;;5100722;28;20122;-45
2022/04/21 05:50:14;;;;;;;7.55;3.15;;;9.90;78.90;;;;;;5102527;27;20023;-46
2022/04/21 05:52:43;;;;;;;5.53;3.63;;;10.00;77.40;;;;;;5094116;28;20035;-45
2022/04/21 05:55:15;;;;;;;8.98;3.20;;;10.00;76.40;;;;;;5076999;28;20067;-48
2022/04/21 05:57:41;;;;;;;6.40;3.28;;;10.10;76.10;;;;;;5104282;28;20491;-45
2022/04/21 06:00:10;;;;;;;4.50;2.80;;;10.20;75.10;;;;;;5111380;28;20039;-46
2022/04/21 06:02:37;;;;;;;5.60;3.13;;;10.40;74.80;;;;;;5105492;28;20032;-48
2022/04/21 06:05:04;;;;;;;5.35;3.25;;;10.40;73.40;;;;;;5108997;28;20054;-45
2022/04/21 06:07:29;;;;;;;4.65;2.38;;;10.40;73.00;;;;;;5111807;28;20084;-47
2022/04/21 06:09:56;;;;;;;4.07;2.85;;;10.50;72.10;;;;;;5110014;28;20051;-45
2022/04/21 06:12:25;;;;;;;6.28;3.08;;;10.60;71.10;;;;;;5077619;28;20039;-48
2022/04/21 06:14:54;;;;;;;5.22;2.97;;;10.70;70.90;;;;;;5118270;27;20027;-49
2022/04/21 06:17:21;;;;;;;7.65;4.32;;;10.80;71.10;;;;;;5114533;27;20038;-45
2022/04/21 06:19:47;;;;;;;5.18;2.63;;;10.90;71.30;;;;;;5089925;28;20040;-50
2022/04/21 06:22:17;;;;;;;6.32;3.05;;;10.90;71.60;;;;;;5114854;27;20107;-46
2022/04/21 06:24:42;;;;;;;4.88;3.30;;;10.90;70.90;;;;;;5115782;27;20400;-47
2022/04/21 06:27:10;;;;;;;4.55;2.72;;;10.90;70.30;;;;;;5113855;28;20032;-46
2022/04/21 06:29:36;;;;;;;4.88;3.58;;;10.90;70.60;;;;;;5115599;28;20311;-48
2022/04/21 06:32:04;;;;;;;6.93;3.40;;;10.90;70.20;;;;;;5105614;28;20111;-50
2022/04/21 06:34:29;;;;;;;5.47;3.08;;;10.90;70.90;;;;;;5090754;28;20030;-48
2022/04/21 06:37:42;;;;;;;4.95;3.25;;;11.00;70.60;;;;;;5099381;28;20027;-49
2022/04/21 06:40:11;;;;;;;6.85;3.20;;;10.90;69.90;;;;;;5106766;28;20359;-50
2022/04/21 06:42:38;;;;;;;5.63;2.78;;;10.80;68.60;;;;;;5093090;28;20048;-46
2022/04/21 06:48:06;;;;;;;4.25;2.63;;;10.80;67.30;;;;;;5110559;28;20038;-47
2022/04/21 06:50:54;;;;;;;4.30;2.20;;;10.80;66.90;;;;;;5111853;28;20039;-45
2022/04/21 06:53:22;;;;;;;4.60;2.75;;;10.90;67.20;;;;;;5109835;28;20031;-49
2022/04/21 06:55:51;;;;;;;9.13;3.00;;;10.90;67.90;;;;;;5097021;28;20027;-49
2022/04/21 06:58:17;;;;;;;4.90;3.10;;;10.90;66.90;;;;;;5110243;27;20931;-46
2022/04/21 07:00:45;;;;;;;4.82;3.53;;;10.90;67.00;;;;;;5104958;28;20039;-48
2022/04/21 07:03:12;;;;;;;5.35;2.75;;;10.90;67.60;;;;;;5097813;27;20072;-49
2022/04/21 07:05:44;;;;;;;4.50;2.97;;;11.00;67.30;;;;;;5086907;28;20052;-45
2022/04/21 07:08:11;;;;;;;10.93;2.88;;;11.10;66.40;;;;;;5061674;28;20036;-49
2022/04/21 07:10:43;;;;;;;4.10;2.65;;;11.10;66.50;;;;;;5090549;28;20416;-48
2022/04/21 07:13:11;;;;;;;4.30;2.47;;;11.10;66.90;;;;;;5093654;28;20021;-48
2022/04/21 07:15:44;;;;;;;4.27;2.90;;;11.10;67.30;;;;;;5076205;28;20409;-50
2022/04/21 07:18:13;;;;;;;4.65;2.80;;;11.00;67.30;;;;;;5074687;28;20028;-45
2022/04/21 07:20:41;;;;;;;5.22;3.13;;;11.00;66.30;;;;;;5064023;28;20467;-49
2022/04/21 07:23:10;;;;;;;3.72;2.08;;;11.10;65.70;;;;;;5094796;28;20032;-46
2022/04/21 07:25:36;;;;;;;5.75;3.47;;;11.20;65.20;;;;;;5094881;28;20106;-47
2022/04/21 07:28:03;;;;;;;5.75;3.08;;;11.30;66.20;;;;;;5076980;28;20039;-45
2022/04/21 07:30:34;;;;;;;5.93;3.42;;;11.40;65.40;;;;;;5075825;28;20028;-47
2022/04/21 07:33:01;;;;;;;6.22;3.53;;;11.50;65.40;;;;;;5075198;28;20051;-45
2022/04/21 07:35:29;;;;;;;6.25;3.67;;;11.70;64.10;;;;;;5075881;28;20043;-47
2022/04/21 07:38:00;;;;;;;6.80;3.45;;;11.90;63.60;;;;;;5093186;28;20028;-47
2022/04/21 07:40:26;;;;;;;6.38;3.58;;;12.20;62.70;;;;;;5093977;28;20116;-46
2022/04/21 07:42:53;;;;;;;5.82;3.67;;;12.30;62.50;;;;;;5075412;28;20039;-50
2022/04/21 07:45:21;;;;;;;7.57;3.60;;;12.60;61.70;;;;;;5092276;28;20043;-50
2022/04/21 07:47:48;;;;;;;5.38;3.42;;;12.90;60.70;;;;;;5078519;28;20028;-50
2022/04/21 07:50:16;;;;;;;8.05;3.67;;;13.40;59.20;;;;;;5092441;28;20149;-50
2022/04/21 07:53:25;;;;;;;10.38;4.18;;;13.70;58.50;;;;;;5092562;28;20107;-47
2022/04/21 07:55:33;;;;;;;6.72;3.90;;;14.00;57.60;;;;;;5081912;28;20039;-47
2022/04/21 07:57:58;;;;;;;8.55;3.97;;;14.10;57.00;;;;;;5092955;28;20036;-47
2022/04/21 08:00:25;;;;;;;8.90;4.60;;;14.50;56.00;;;;;;5073000;28;20048;-49
2022/04/21 08:02:54;;;;;;;7.00;3.42;;;14.60;55.20;;;;;;5069116;28;20114;-46
2022/04/21 08:05:24;;;;;;;5.70;3.42;;;14.90;55.10;;;;;;5078398;28;20048;-49
2022/04/21 08:07:52;;;;;;;5.93;3.78;;;15.10;53.90;;;;;;5112203;28;20432;-46
2022/04/21 08:10:22;;;;;;;6.75;3.60;;;15.40;52.80;;;;;;5106136;28;20028;-48
2022/04/21 08:12:51;;;;;;;6.30;3.47;;;15.60;52.60;;;;;;5106143;27;20348;-47
2022/04/21 08:15:35;;;;;;;5.90;3.75;;;15.70;52.60;;;;;;5084779;28;20105;-48
2022/04/21 08:18:04;;;;;;;5.95;3.67;;;15.90;51.50;;;;;;5112934;28;20023;-50
2022/04/21 08:20:32;;;;;;;5.47;3.88;;;15.90;52.10;;;;;;5110312;28;20067;-48
2022/04/21 08:23:00;;;;;;;13.88;4.00;;;15.90;52.00;;;;;;5113438;27;20034;-46
2022/04/21 08:33:44;;;;;;;6.28;3.60;;;15.80;52.20;;;;;;5112556;28;20045;-45
2022/04/21 08:36:11;;;;;;;4.90;2.65;;;15.80;51.30;;;;;;5104662;28;20031;-49
2022/04/21 08:38:38;;;;;;;13.27;4.30;;;16.10;52.30;;;;;;5112648;27;20028;-48
2022/04/21 08:41:14;;;;;;;5.00;3.08;;;16.50;52.20;;;;;;5111317;28;20031;-52
2022/04/21 08:43:41;;;;;;;16.00;3.72;;;16.90;52.60;;;;;;5105196;28;20035;-49
2022/04/21 08:46:16;;;;;;;9.15;4.20;;;17.10;50.80;;;;;;5112819;28;20039;-48
2022/04/21 08:48:50;;;;;;;5.35;3.03;;;17.00;51.80;;;;;;5110931;27;20059;-49
2022/04/21 08:51:18;;;;;;;4.60;2.78;;;16.50;52.60;;;;;;5090888;28;20523;-48
2022/04/21 08:53:44;;;;;;;4.88;3.38;;;16.40;53.60;;;;;;5094745;28;20344;-47
2022/04/21 08:56:14;;;;;;;8.05;3.22;;;16.40;53.50;;;;;;5102150;28;20039;-51
2022/04/21 08:58:41;;;;;;;5.65;2.88;;;16.20;52.20;;;;;;5092411;28;20051;-48
2022/04/21 09:01:08;;;;;;;5.40;2.80;;;15.90;53.80;;;;;;5094550;28;20118;-47
2022/04/21 09:03:36;;;;;;;4.43;2.97;;;15.80;53.70;;;;;;5108182;27;20033;-46
2022/04/21 09:06:04;;;;;;;6.50;3.13;;;15.90;53.50;;;;;;5112295;27;20452;-45
2022/04/21 09:08:34;;;;;;;5.03;3.15;;;15.90;54.20;;;;;;5104611;28;20043;-46
2022/04/21 09:11:21;;;;;;;6.25;3.10;;;16.10;54.50;;;;;;5092574;27;20333;-46
2022/04/21 09:13:58;;;;;;;6.38;3.72;;;16.40;53.80;;;;;;5128570;27;20504;-47
2022/04/21 09:16:33;;;;;;;4.80;3.55;;;16.40;52.80;;;;;;5066813;28;20044;-46
2022/04/21 09:19:02;;;;;;;7.93;3.50;;;16.50;53.90;;;;;;5076616;28;20035;-45
2022/04/21 09:21:39;;;;;;;7.22;3.97;;;16.50;52.10;;;;;;5109034;28;20085;-46
2022/04/21 09:24:31;;;;;;;4.55;2.95;;;16.50;52.30;;;;;;5082611;28;20479;-45
2022/04/21 09:26:57;;;;;;;5.25;3.22;;;16.80;52.50;;;;;;5108452;28;20043;-47
2022/04/21 09:29:28;;;;;;;4.63;3.08;;;16.40;52.80;;;;;;5120479;27;20020;-46
2022/04/21 09:32:06;;;;;;;9.93;4.07;;;16.40;53.10;;;;;;5084371;28;20040;-47
2022/04/21 09:34:50;;;;;;;6.05;3.80;;;16.40;52.40;;;;;;5098618;27;20152;-47
2022/04/21 09:37:20;;;;;;;5.68;3.60;;;16.00;54.40;;;;;;5108712;27;20074;-49
2022/04/21 09:39:55;;;;;;;4.60;3.47;;;16.20;55.00;;;;;;5121273;27;20047;-47
2022/04/21 09:42:29;;;;;;;5.82;3.55;;;16.40;54.40;;;;;;5097877;28;20031;-47
2022/04/21 09:48:00;;;;;;;8.73;3.70;;;16.70;53.20;;;;;;5094930;28;20063;-49
2022/04/21 09:50:32;;;;;;;8.15;4.40;;;16.80;53.50;;;;;;5074602;28;20032;-47
2022/04/21 09:53:03;;;;;;;8.10;3.50;;;16.70;52.20;;;;;;5092348;28;20035;-46
2022/04/21 09:55:31;;;;;;;6.13;4.30;;;16.70;52.40;;;;;;5081983;28;20026;-48
2022/04/21 09:58:06;;;;;;;5.97;4.55;;;16.90;52.00;;;;;;5078948;28;20048;-49
2022/04/21 10:00:38;;;;;;;8.35;4.85;;;16.70;53.10;;;;;;5062829;28;20370;-45
2022/04/21 10:03:10;;;;;;;8.73;4.85;;;16.50;55.00;;;;;;5111201;28;20023;-45
2022/04/21 10:05:39;;;;;;;6.70;4.72;;;16.60;53.90;;;;;;5106569;28;20087;-51
2022/04/21 10:08:07;;;;;;;6.57;4.35;;;16.20;53.90;;;;;;5105281;28;20012;-47
2022/04/21 10:10:35;;;;;;;7.85;4.72;;;15.90;56.10;;;;;;5087038;28;20042;-49
2022/04/21 10:13:03;;;;;;;6.93;4.57;;;16.00;55.70;;;;;;5075618;28;20099;-49
2022/04/21 10:15:34;;;;;;;5.35;4.60;;;16.30;55.40;;;;;;5092989;28;20494;-47
2022/04/21 10:18:04;;;;;;;6.53;5.00;;;16.50;55.80;;;;;;5086555;28;20027;-49
2022/04/21 10:20:33;;;;;;;9.23;4.78;;;16.60;53.40;;;;;;5102108;28;20019;-51
2022/04/21 10:23:02;;;;;;;6.93;4.25;;;16.30;52.90;;;;;;5089978;28;20127;-48
2022/04/21 10:25:36;;;;;;;6.60;4.70;;;16.20;54.40;;;;;;5106057;28;20042;-48
2022/04/21 10:28:40;;;;;;;8.38;4.53;;;16.50;53.50;;;;;;5082888;28;20031;-49
2022/04/21 10:31:43;;;;;;;7.72;5.07;;;16.50;54.50;;;;;;5091519;28;20020;-45
2022/04/21 10:34:09;;;;;;;5.43;4.20;;;16.40;56.10;;;;;;5112885;28;20084;-45
2022/04/21 10:36:49;;;;;;;5.70;4.97;;;16.50;55.60;;;;;;5081259;28;20114;-46
2022/04/21 10:39:17;;;;;;;6.38;4.90;;;16.80;55.50;;;;;;5103757;28;20059;-48
2022/04/21 10:41:47;;;;;;;8.07;5.25;;;16.90;54.20;;;;;;5101840;28;20043;-47
2022/04/21 10:44:16;;;;;;;8.57;5.45;;;16.90;52.40;;;;;;5075588;28;20414;-46
2022/04/21 10:46:43;;;;;;;7.93;5.05;;;17.00;56.60;;;;;;5098487;28;20035;-45
2022/04/21 10:49:10;;;;;;;7.28;5.40;;;16.80;53.40;;;;;;5110497;28;20027;-51
2022/04/21 10:57:39;;;;;;;7.60;5.88;;;16.60;54.60;;;;;;5089116;28;20051;-47
2022/04/21 11:00:10;;;;;;;7.35;5.68;;;16.50;54.30;;;;;;5112648;28;20444;-45
2022/04/21 11:02:46;;;;;;;8.55;6.10;;;16.40;53.00;;;;;;5113935;28;20450;-45
2022/04/21 11:05:50;;;;;;;8.32;5.45;;;16.60;53.40;;;;;;5097851;28;20055;-48
2022/04/21 11:08:21;;;;;;;8.90;6.13;;;16.30;55.00;;;;;;5086748;28;20028;-49
2022/04/21 11:10:46;;;;;;;9.38;6.20;;;16.60;55.30;;;;;;5087025;28;20097;-48
2022/04/21 11:13:18;;;;;;;7.38;4.88;;;16.60;54.80;;;;;;5092399;28;20449;-47
2022/04/21 11:15:58;;;;;;;7.32;5.25;;;16.60;56.40;;;;;;5074456;28;20482;-52
2022/04/21 11:18:31;;;;;;;;;;;16.80;55.70;;;;;;5093832;28;20092;-48
2022/04/21 11:21:25;;;;;;;7.65;5.35;;;16.90;55.90;;;;;;5070011;28;20329;-47
2022/04/21 11:23:54;;;;;;;8.00;6.78;;;16.50;56.60;;;;;;5091617;28;20040;-47
2022/04/21 11:26:28;;;;;;;10.68;7.47;;;16.40;58.80;;;;;;5057462;28;20024;-45
2022/04/21 11:29:01;;;;;;;6.63;5.75;;;16.40;60.00;;;;;;5086094;28;20036;-50
2022/04/21 11:31:28;;;;;;;7.28;6.28;;;16.40;60.90;;;;;;5060163;28;20043;-47
2022/04/21 11:34:00;;;;;;;7.18;6.10;;;16.30;60.90;;;;;;5089222;28;20048;-48
2022/04/21 11:36:40;;;;;;;11.75;7.13;;;16.30;59.90;;;;;;5094392;28;20031;-46
2022/04/21 11:39:08;;;;;;;10.65;6.50;;;16.40;59.80;;;;;;5085975;28;20040;-46
2022/04/21 11:41:40;;;;;;;9.30;7.32;;;16.30;60.60;;;;;;5048780;28;20368;-49
2022/04/21 11:44:08;;;;;;;11.57;8.00;;;16.30;60.60;;;;;;5069280;28;20130;-47
2022/04/21 11:46:40;;;;;;;8.43;7.35;;;16.30;60.40;;;;;;5089018;28;20044;-48
2022/04/21 11:49:11;;;;;;;9.80;6.95;;;16.10;60.20;;;;;;5088590;28;20020;-48
2022/04/21 11:51:36;;;;;;;7.93;6.60;;;16.00;60.00;;;;;;5048945;28;20040;-49
2022/04/21 11:54:17;;;;;;;10.50;7.55;;;16.00;59.30;;;;;;5092737;28;20433;-51
2022/04/21 11:56:50;;;;;;;9.10;7.22;;;16.00;59.20;;;;;;5091806;28;20074;-50
2022/04/21 11:59:17;;;;;;;11.15;7.45;;;15.90;58.40;;;;;;5060708;28;20032;-47
2022/04/21 12:07:21;;;;;;;17.67;8.40;;;16.00;60.50;;;;;;5107255;28;20038;-46
2022/04/21 12:09:48;;;;;;;11.18;7.72;;;16.10;60.00;;;;;;5106793;27;20024;-46
2022/04/21 12:12:15;;;;;;;12.48;8.27;;;16.00;59.20;;;;;;5094608;28;20032;-47
2022/04/21 12:14:43;;;;;;;8.95;6.95;;;15.90;60.50;;;;;;5117562;27;20070;-47
2022/04/21 12:17:10;;;;;;;11.68;8.05;;;15.90;60.80;;;;;;5093509;28;20028;-49
2022/04/21 12:19:59;;;;;;;11.35;7.50;;;15.90;61.10;;;;;;5083978;28;20053;-45
2022/04/21 12:22:35;;;;;;;12.52;8.13;;;15.90;59.60;;;;;;5091540;28;20032;-46
2022/04/21 12:25:13;;;;;;;8.48;7.60;;;15.70;59.70;;;;;;5112691;27;20356;-46
2022/04/21 12:27:42;;;;;;;7.93;6.97;;;15.70;60.70;;;;;;5095267;28;20031;-45
2022/04/21 12:50:09;;;;;;;10.82;8.73;;;15.20;64.30;;;;;;5119055;27;20413;-48
2022/04/21 12:52:42;;;;;;;13.93;9.13;;;15.20;65.10;;;;;;5068252;28;20472;-46
2022/04/21 12:55:11;;;;;;;15.02;9.20;;;14.90;64.00;;;;;;5084872;28;20035;-50
2022/04/21 12:57:39;;;;;;;11.52;9.98;;;14.80;64.70;;;;;;5068082;28;20028;-50
2022/04/21 13:00:12;;;;;;;14.73;9.63;;;14.50;63.80;;;;;;5068790;28;20162;-46
2022/04/21 13:02:39;;;;;;;11.85;9.02;;;14.60;65.20;;;;;;5067985;28;20127;-47
2022/04/21 13:05:09;;;;;;;15.15;9.68;;;14.50;63.90;;;;;;5068572;28;20445;-50
2022/04/21 13:07:35;;;;;;;;;;;14.50;64.50;;;;;;5064010;28;20025;-45
2022/04/21 13:10:02;;;;;;;18.00;9.40;;;14.40;64.10;;;;;;5065276;28;20329;-46
2022/04/21 13:12:30;;;;;;;10.65;7.30;;;14.40;64.20;;;;;;5084377;28;20127;-48
2022/04/21 13:14:56;;;;;;;13.43;8.25;;;14.30;64.10;;;;;;5068639;28;20086;-50
2022/04/21 13:17:22;;;;;;;8.75;7.07;;;14.40;63.40;;;;;;5063591;28;20037;-50
2022/04/21 13:19:48;;;;;;;10.82;6.45;;;14.30;63.50;;;;;;5062200;28;20024;-48
2022/04/21 13:22:15;;;;;;;8.70;6.78;;;14.10;63.80;;;;;;5065503;28;20035;-48
2022/04/21 13:24:44;;;;;;;11.35;7.00;;;14.00;64.80;;;;;;5058157;28;20021;-49
2022/04/21 13:27:11;;;;;;;8.48;6.90;;;14.00;65.50;;;;;;5060907;28;20375;-47
2022/04/21 13:29:38;;;;;;;11.40;7.50;;;13.80;66.40;;;;;;5065783;28;20029;-50
2022/04/21 13:34:50;;;;;;;9.43;6.90;;;13.50;67.10;;;;;;5063773;28;20048;-49
2022/04/21 13:37:17;;;;;;;7.05;6.00;;;13.50;67.10;;;;;;5062955;28;20376;-49
2022/04/21 13:39:45;;;;;;;14.13;6.75;;;13.60;67.70;;;;;;5070631;28;20131;-49
2022/04/21 13:42:12;;;;;;;8.63;6.38;;;13.40;67.20;;;;;;5065181;28;20360;-46
2022/04/21 13:44:39;;;;;;;13.18;6.75;;;13.40;66.90;;;;;;5067664;28;20405;-49
2022/04/21 13:47:06;;;;;;;12.43;6.82;;;13.40;67.40;;;;;;5067415;28;20036;-50
2022/04/21 13:49:33;;;;;;;10.25;7.13;;;13.50;67.70;;;;;;5067553;28;20114;-47
2022/04/21 13:51:59;;;;;;;10.82;7.25;;;13.40;67.80;;;;;;5070679;28;20040;-46
2022/04/21 13:54:30;;;;;;;8.52;7.10;;;13.40;68.10;;;;;;5064175;28;20028;-46
2022/04/21 13:56:56;;;;;;;12.40;7.57;;;13.50;68.40;;;;;;5066745;28;20524;-47
2022/04/21 13:59:22;;;;;;;10.75;7.45;;;13.40;68.40;;;;;;5064871;28;20115;-48
2022/04/21 14:01:52;;;;;;;12.48;7.40;;;13.40;68.50;;;;;;5054301;28;20075;-46
2022/04/21 14:04:17;;;;;;;8.40;6.70;;;13.50;68.20;;;;;;5054366;28;20033;-48
2022/04/21 14:06:44;;;;;;;10.73;7.15;;;13.60;68.50;;;;;;5053228;28;20036;-46
2022/04/21 14:09:10;;;;;;;10.68;8.18;;;13.60;67.90;;;;;;5054180;28;20029;-48
2022/04/21 14:11:37;;;;;;;13.25;8.40;;;13.60;68.10;;;;;;5053947;28;20028;-46
2022/04/21 14:14:08;;;;;;;9.43;7.50;;;13.60;67.80;;;;;;5054197;28;20021;-47
2022/04/21 14:16:34;;;;;;;13.93;8.38;;;13.60;67.50;;;;;;5053158;28;20092;-46